createdAt,value
2017-01-22T00:00:03.152Z,1027.89
2017-01-22T00:05:02.758Z,1027.82
2017-01-22T00:10:02.825Z,1027.76
2017-01-22T00:15:02.781Z,1027.8
2017-01-22T00:20:03.472Z,1027.76
2017-01-22T00:25:03.063Z,1027.72
2017-01-22T00:30:02.898Z,1027.69
2017-01-22T00:35:02.704Z,1027.71
2017-01-22T00:40:03.576Z,1027.69
2017-01-22T00:45:03.532Z,1027.74
2017-01-22T00:50:03.131Z,1027.69
2017-01-22T00:55:03.199Z,1027.69
2017-01-22T01:00:02.876Z,1027.67
2017-01-22T01:05:03.543Z,1027.62
2017-01-22T01:10:03.102Z,1027.71
2017-01-22T01:15:02.906Z,1027.68
2017-01-22T01:20:02.701Z,1027.73
2017-01-22T01:25:03.417Z,1027.74
2017-01-22T01:30:03.106Z,1027.78
2017-01-22T01:35:02.732Z,1027.72
2017-01-22T01:40:02.883Z,1027.75
2017-01-22T01:45:02.728Z,1027.66
2017-01-22T01:50:03.380Z,1027.7
2017-01-22T01:55:03.248Z,1027.64
2017-01-22T02:00:02.948Z,1027.68
2017-01-22T02:05:03.557Z,1027.67
2017-01-22T02:10:03.182Z,1027.52
2017-01-22T02:15:03.122Z,1027.51
2017-01-22T02:20:02.860Z,1027.44
2017-01-22T02:25:02.792Z,1027.49
2017-01-22T02:30:03.485Z,1027.56
2017-01-22T02:35:03.416Z,1027.43
2017-01-22T02:40:03.598Z,1027.5
2017-01-22T02:45:03.294Z,1027.49
2017-01-22T02:50:02.929Z,1027.47
2017-01-22T02:55:03.825Z,1027.38
2017-01-22T03:00:02.730Z,1027.39
2017-01-22T03:05:03.563Z,1027.39
2017-01-22T03:10:03.354Z,1027.4
2017-01-22T03:15:03.041Z,1027.38
2017-01-22T03:20:02.671Z,1027.39
2017-01-22T03:25:03.354Z,1027.4
2017-01-22T03:30:03.191Z,1027.57
2017-01-22T03:35:02.760Z,1027.54
2017-01-22T03:40:03.305Z,1027.56
2017-01-22T03:45:02.994Z,1027.55
2017-01-22T03:50:02.685Z,1027.56
2017-01-22T03:55:03.409Z,1027.52
2017-01-22T04:00:03.273Z,1027.47
2017-01-22T04:05:03.228Z,1027.46
2017-01-22T04:10:02.981Z,1027.44
2017-01-22T04:15:02.751Z,1027.42
2017-01-22T04:20:03.604Z,1027.46
2017-01-22T04:25:03.563Z,1027.43
2017-01-22T04:30:03.462Z,1027.4
2017-01-22T04:35:03.378Z,1027.39
2017-01-22T04:40:03.153Z,1027.41
2017-01-22T04:45:02.972Z,1027.39
2017-01-22T04:50:02.848Z,1027.42
2017-01-22T04:55:02.761Z,1027.43
2017-01-22T05:00:03.541Z,1027.44
2017-01-22T05:05:03.358Z,1027.38
2017-01-22T05:10:03.192Z,1027.35
2017-01-22T05:15:02.740Z,1027.27
2017-01-22T05:20:03.436Z,1027.31
2017-01-22T05:25:03.384Z,1027.28
2017-01-22T05:30:03.137Z,1027.26
2017-01-22T05:35:02.967Z,1027.3
2017-01-22T05:40:02.983Z,1027.24
2017-01-22T05:45:03.707Z,1027.17
2017-01-22T05:50:02.851Z,1027.09
2017-01-22T05:55:03.580Z,1027.19
2017-01-22T06:00:03.561Z,1027.15
2017-01-22T06:05:03.494Z,1027.15
2017-01-22T06:10:03.184Z,1027.13
2017-01-22T06:15:02.719Z,1027.11
2017-01-22T06:20:03.502Z,1027.14
2017-01-22T06:25:03.517Z,1027.11
2017-01-22T06:30:03.129Z,1027.13
2017-01-22T06:35:03.111Z,1027.11
2017-01-22T06:40:03.101Z,1027.11
2017-01-22T06:45:02.968Z,1027.13
2017-01-22T06:50:02.813Z,1027.06
2017-01-22T06:55:03.613Z,1027.13
2017-01-22T07:00:03.540Z,1027.12
2017-01-22T07:05:03.055Z,1027.14
2017-01-22T07:10:02.806Z,1027.09
2017-01-22T07:15:03.386Z,1027.23
2017-01-22T07:20:03.024Z,1027.34
2017-01-22T07:25:03.524Z,1027.3
2017-01-22T07:30:03.232Z,1027.28
2017-01-22T07:35:02.744Z,1027.24
2017-01-22T07:40:02.638Z,1027.21
2017-01-22T07:45:03.197Z,1027.24
2017-01-22T07:50:03.163Z,1027.34
2017-01-22T07:55:03.165Z,1027.23
2017-01-22T08:00:02.885Z,1027.32
2017-01-22T08:05:03.443Z,1027.36
2017-01-22T08:10:03.196Z,1027.43
2017-01-22T08:15:03.004Z,1027.49
2017-01-22T08:20:02.869Z,1027.51
2017-01-22T08:25:03.622Z,1027.46
2017-01-22T08:30:03.519Z,1027.48
2017-01-22T08:35:03.470Z,1027.44
2017-01-22T08:40:03.170Z,1027.41
2017-01-22T08:45:02.748Z,1027.44
2017-01-22T08:50:03.476Z,1027.43
2017-01-22T08:55:03.434Z,1027.43
2017-01-22T09:00:03.431Z,1027.56
2017-01-22T09:05:03.322Z,1027.66
2017-01-22T09:10:03.008Z,1027.71
2017-01-22T09:15:02.674Z,1027.73
2017-01-22T09:20:03.420Z,1027.75
2017-01-22T09:25:03.312Z,1027.77
2017-01-22T09:30:02.948Z,1027.75
2017-01-22T09:35:02.848Z,1027.72
2017-01-22T09:40:03.784Z,1027.72
2017-01-22T09:45:03.471Z,1027.69
2017-01-22T09:50:03.315Z,1027.7
2017-01-22T09:55:02.898Z,1027.67
2017-01-22T10:00:03.869Z,1027.69
2017-01-22T10:05:03.450Z,1027.7
2017-01-22T10:10:03.198Z,1027.71
2017-01-22T10:15:02.907Z,1027.63
2017-01-22T10:20:03.663Z,1027.64
2017-01-22T10:25:03.518Z,1027.61
2017-01-22T10:30:03.445Z,1027.61
2017-01-22T10:35:03.126Z,1027.59
2017-01-22T10:40:03.031Z,1027.54
2017-01-22T10:45:02.774Z,1027.55
2017-01-22T10:50:03.412Z,1027.37
2017-01-22T10:55:03.317Z,1027.33
2017-01-22T11:00:02.905Z,1027.27
2017-01-22T11:05:03.845Z,1027.21
2017-01-22T11:10:03.649Z,1027.3
2017-01-22T11:16:59.367Z,1027.32
2017-01-22T11:20:03.150Z,1027.31
2017-01-22T11:25:02.884Z,1027.3
2017-01-22T11:30:03.634Z,1027.09
2017-01-22T11:35:03.285Z,1027.07
2017-01-22T11:40:03.001Z,1027.09
2017-01-22T11:45:02.773Z,1027.02
2017-01-22T11:50:03.517Z,1026.94
2017-01-22T11:55:03.352Z,1026.79
2017-01-22T12:00:03.191Z,1026.71
2017-01-22T12:05:02.868Z,1026.62
2017-01-22T12:10:03.745Z,1026.56
2017-01-22T12:15:02.694Z,1026.5
2017-01-22T12:20:03.378Z,1026.41
2017-01-22T12:25:02.942Z,1026.45
2017-01-22T12:30:03.634Z,1026.33
2017-01-22T12:35:03.173Z,1026.29
2017-01-22T12:40:03.091Z,1026.3
2017-01-22T12:45:02.884Z,1026.27
2017-01-22T12:50:03.624Z,1026.17
2017-01-22T12:55:03.373Z,1026.11
2017-01-22T13:00:03.144Z,1026.06
2017-01-22T13:05:02.957Z,1026.14
2017-01-22T13:10:02.957Z,1026.1
2017-01-22T13:15:03.794Z,1026.14
2017-01-22T13:20:03.632Z,1026.02
2017-01-22T13:25:03.404Z,1026.03
2017-01-22T13:30:03.218Z,1026
2017-01-22T13:35:03.092Z,1026.02
2017-01-22T13:40:02.793Z,1025.87
2017-01-22T13:45:03.655Z,1025.92
2017-01-22T13:50:03.494Z,1025.9
2017-01-22T13:55:03.015Z,1025.86
2017-01-22T14:00:02.865Z,1025.86
2017-01-22T14:05:02.682Z,1025.85
2017-01-22T14:10:03.489Z,1025.92
2017-01-22T14:15:03.299Z,1025.93
2017-01-22T14:20:03.056Z,1025.99
2017-01-22T14:25:02.986Z,1026
2017-01-22T14:30:03.033Z,1026.01
2017-01-22T14:35:02.758Z,1026.01
2017-01-22T14:40:02.757Z,1025.99
2017-01-22T14:45:03.329Z,1025.98
2017-01-22T14:50:03.195Z,1025.99
2017-01-22T14:55:03.087Z,1026.02
2017-01-22T15:00:02.770Z,1025.98
2017-01-22T15:05:03.330Z,1025.95
2017-01-22T15:10:03.363Z,1025.94
2017-01-22T15:15:03.473Z,1025.9
2017-01-22T15:20:03.470Z,1025.92
2017-01-22T15:25:03.171Z,1025.92
2017-01-22T15:30:03.050Z,1025.96
2017-01-22T15:35:03.041Z,1026.02
2017-01-22T15:40:02.898Z,1026
2017-01-22T15:45:03.697Z,1025.95
2017-01-22T15:50:02.620Z,1025.96
2017-01-22T15:55:03.545Z,1025.92
2017-01-22T16:00:02.726Z,1025.93
2017-01-22T16:05:03.497Z,1025.98
2017-01-22T16:10:03.391Z,1025.98
2017-01-22T16:15:03.287Z,1026.01
2017-01-22T16:20:03.215Z,1026.01
2017-01-22T16:25:02.841Z,1026.04
2017-01-22T16:30:03.541Z,1026.15
2017-01-22T16:35:03.416Z,1026.15
2017-01-22T16:40:03.337Z,1026.18
2017-01-22T16:45:03.123Z,1026.13
2017-01-22T16:50:02.879Z,1026.12
2017-01-22T16:55:02.794Z,1026.2
2017-01-22T17:00:03.652Z,1026.21
2017-01-22T17:05:03.507Z,1026.24
2017-01-22T17:10:03.429Z,1026.27
2017-01-22T17:15:03.431Z,1026.34
2017-01-22T17:20:02.811Z,1026.33
2017-01-22T17:25:03.623Z,1026.3
2017-01-22T17:30:03.466Z,1026.34
2017-01-22T17:35:03.377Z,1026.32
2017-01-22T17:40:03.535Z,1026.34
2017-01-22T17:45:03.336Z,1026.38
2017-01-22T17:50:03.451Z,1026.34
2017-01-22T17:55:02.686Z,1026.35
2017-01-22T18:00:03.379Z,1026.33
2017-01-22T18:05:03.601Z,1026.32
2017-01-22T18:10:02.752Z,1026.31
2017-01-22T18:15:02.872Z,1026.36
2017-01-22T18:20:03.806Z,1026.32
2017-01-22T18:25:02.924Z,1026.34
2017-01-22T18:30:03.643Z,1026.37
2017-01-22T18:35:03.625Z,1026.33
2017-01-22T18:40:03.529Z,1026.36
2017-01-22T18:45:03.397Z,1026.35
2017-01-22T18:50:03.348Z,1026.35
2017-01-22T18:55:03.211Z,1026.39
2017-01-22T19:00:02.854Z,1026.42
2017-01-22T19:05:03.620Z,1026.42
2017-01-22T19:10:03.355Z,1026.38
2017-01-22T19:15:03.169Z,1026.38
2017-01-22T19:20:02.739Z,1026.45
2017-01-22T19:25:03.840Z,1026.41
2017-01-22T19:30:03.664Z,1026.42
2017-01-22T19:35:03.537Z,1026.46
2017-01-22T19:40:03.170Z,1026.38
2017-01-22T19:45:02.786Z,1026.46
2017-01-22T19:50:03.518Z,1026.52
2017-01-22T19:55:03.258Z,1026.57
2017-01-22T20:00:03.226Z,1026.5
2017-01-22T20:05:02.991Z,1026.43
2017-01-22T20:10:02.938Z,1026.42
2017-01-22T20:15:03.675Z,1026.43
2017-01-22T20:20:03.272Z,1026.41
2017-01-22T20:25:02.911Z,1026.38
2017-01-22T20:30:03.107Z,1026.25
2017-01-22T20:35:02.717Z,1026.25
2017-01-22T20:40:03.337Z,1026.23
2017-01-22T20:45:03.328Z,1026.27
2017-01-22T20:50:03.045Z,1026.27
2017-01-22T20:55:02.850Z,1026.31
2017-01-22T21:00:03.536Z,1026.33
2017-01-22T21:05:03.469Z,1026.33
2017-01-22T21:10:03.306Z,1026.31
2017-01-22T21:15:03.045Z,1026.28
2017-01-22T21:20:02.738Z,1026.32
2017-01-22T21:25:03.424Z,1026.38
2017-01-22T21:30:03.473Z,1026.34
2017-01-22T21:35:03.357Z,1026.28
2017-01-22T21:40:03.073Z,1026.3
2017-01-22T21:45:02.807Z,1026.31
2017-01-22T21:50:03.497Z,1026.35
2017-01-22T21:55:03.203Z,1026.4
2017-01-22T22:00:02.926Z,1026.39
2017-01-22T22:05:02.814Z,1026.44
2017-01-22T22:10:03.694Z,1026.4
2017-01-22T22:15:03.684Z,1026.42
2017-01-22T22:20:03.315Z,1026.5
2017-01-22T22:25:03.113Z,1026.57
2017-01-22T22:30:03.234Z,1026.6
2017-01-22T22:35:03.086Z,1026.66
2017-01-22T22:40:02.949Z,1026.66
2017-01-22T22:45:02.768Z,1026.7
2017-01-22T22:50:02.719Z,1026.72
2017-01-22T22:55:03.445Z,1026.72
2017-01-22T23:00:02.966Z,1026.72
2017-01-22T23:05:02.653Z,1026.76
2017-01-22T23:10:03.295Z,1026.72
2017-01-22T23:15:02.854Z,1026.77
2017-01-22T23:20:03.476Z,1026.82
2017-01-22T23:25:03.166Z,1026.82
2017-01-22T23:30:03.093Z,1026.64
2017-01-22T23:35:02.785Z,1026.66
2017-01-22T23:40:03.652Z,1026.62
2017-01-22T23:45:03.323Z,1026.71
2017-01-22T23:50:02.979Z,1026.71
2017-01-22T23:55:02.696Z,1026.73
